Yuma MCAS, Arizona
Current Conditions -  °F | °C
As of 7:57 AM on Thursday 18 Dec 2014 (Local Time) from KNYL Reporting Station
Haze Haze  
Wind Chill: 48°   Ceiling: 20000
Heat Index: 48°   Visibility: 6mi
Dew Point: 46°   Wind: 3mph
Humidity: 93%   Direction: 50°NE
Pressure: 30.13"   Gusts: NA
Location:  32.65°N, 114.62°W
Report Text: KNYL 181457Z 05003KT 6SM BR FEW120 BKN200 09/08 A3013 RMK AO2 SLP202 T00890078 51015
Loading
Personal Weather Stations






























Interactive Weather Map New forecast layout! Learn more

10-Day Weather Forecast

Advertisements
Track Severe Weather on mobile